createdAt,value
2022-09-25T00:01:10.288Z,12.77
2022-09-25T00:03:37.678Z,12.75
2022-09-25T00:06:07.713Z,12.65
2022-09-25T00:08:36.453Z,12.65
2022-09-25T00:11:14.223Z,12.53
2022-09-25T00:13:42.891Z,12.53
2022-09-25T00:16:13.565Z,12.42
2022-09-25T00:18:59.251Z,12.39
2022-09-25T00:21:31.083Z,12.26
2022-09-25T00:24:04.039Z,12.20
2022-09-25T00:26:34.878Z,12.17
2022-09-25T00:29:02.144Z,12.22
2022-09-25T00:31:30.326Z,12.31
2022-09-25T00:33:59.892Z,12.33
2022-09-25T00:36:27.740Z,12.42
2022-09-25T00:38:54.625Z,12.36
2022-09-25T00:41:24.104Z,12.33
2022-09-25T00:43:56.131Z,12.37
2022-09-25T00:46:43.087Z,12.37
2022-09-25T00:49:09.959Z,12.36
2022-09-25T00:52:02.916Z,12.35
2022-09-25T00:54:33.177Z,12.40
2022-09-25T00:57:06.533Z,12.38
2022-09-25T00:59:46.134Z,12.40
2022-09-25T01:02:24.974Z,12.39
2022-09-25T01:04:52.520Z,12.43
2022-09-25T01:07:19.937Z,12.47
2022-09-25T01:09:46.993Z,12.50
2022-09-25T01:12:13.539Z,12.51
2022-09-25T01:14:41.403Z,12.49
2022-09-25T01:17:19.316Z,12.47
2022-09-25T01:20:23.375Z,12.38
2022-09-25T01:22:55.857Z,12.36
2022-09-25T01:25:47.278Z,12.37
2022-09-25T01:28:31.672Z,12.42
2022-09-25T01:31:11.339Z,12.48
2022-09-25T01:33:48.180Z,12.48
2022-09-25T01:36:23.775Z,12.51
2022-09-25T01:39:09.683Z,12.44
2022-09-25T01:41:50.723Z,12.36
2022-09-25T01:44:34.635Z,12.41
2022-09-25T01:47:18.697Z,12.50
2022-09-25T01:49:55.470Z,12.52
2022-09-25T01:52:35.106Z,12.53
2022-09-25T01:55:38.324Z,12.39
2022-09-25T01:58:32.411Z,12.42
2022-09-25T02:01:06.520Z,12.49
2022-09-25T02:03:56.350Z,12.42
2022-09-25T02:06:25.059Z,12.38
2022-09-25T02:09:14.671Z,12.40
2022-09-25T02:11:50.445Z,12.44
2022-09-25T02:14:23.032Z,12.37
2022-09-25T02:16:56.119Z,12.32
2022-09-25T02:19:41.728Z,12.34
2022-09-25T02:22:17.283Z,12.34
2022-09-25T02:24:59.107Z,12.37
2022-09-25T02:27:28.303Z,12.41
2022-09-25T02:29:58.155Z,12.48
2022-09-25T02:32:32.720Z,12.44
2022-09-25T02:35:00.408Z,12.41
2022-09-25T02:37:27.636Z,12.43
2022-09-25T02:39:59.821Z,12.45
2022-09-25T02:42:49.279Z,12.43
2022-09-25T02:45:45.219Z,12.41
2022-09-25T02:48:23.220Z,12.37
2022-09-25T02:51:29.021Z,12.36
2022-09-25T02:54:22.616Z,12.27
2022-09-25T02:57:04.129Z,12.22
2022-09-25T02:59:41.903Z,12.17
2022-09-25T03:02:12.842Z,12.19
2022-09-25T03:04:42.041Z,12.20
2022-09-25T03:07:08.645Z,12.28
2022-09-25T03:09:40.086Z,12.25
2022-09-25T03:12:06.615Z,12.19
2022-09-25T03:14:33.139Z,12.26
2022-09-25T03:17:06.078Z,12.31
2022-09-25T03:19:34.698Z,12.25
2022-09-25T03:22:02.912Z,12.24
2022-09-25T03:24:29.439Z,12.23
2022-09-25T03:26:55.890Z,12.25
2022-09-25T03:29:22.407Z,12.18
2022-09-25T03:31:49.383Z,12.25
2022-09-25T03:34:19.106Z,12.28
2022-09-25T03:36:47.499Z,12.26
2022-09-25T03:39:19.434Z,12.24
2022-09-25T03:41:45.965Z,12.28
2022-09-25T03:44:12.693Z,12.33
2022-09-25T03:46:39.409Z,12.36
2022-09-25T03:49:06.087Z,12.33
2022-09-25T03:51:33.706Z,12.42
2022-09-25T03:54:00.373Z,12.41
2022-09-25T03:56:29.652Z,12.32
2022-09-25T03:58:57.279Z,12.28
2022-09-25T04:01:25.871Z,12.26
2022-09-25T04:03:53.200Z,12.27
2022-09-25T04:06:24.818Z,12.29
2022-09-25T04:08:53.176Z,12.32
2022-09-25T04:11:23.932Z,12.28
2022-09-25T04:13:51.020Z,12.20
2022-09-25T04:16:20.298Z,12.22
2022-09-25T04:18:47.439Z,12.26
2022-09-25T04:21:14.859Z,12.23
2022-09-25T04:23:41.688Z,12.24
2022-09-25T04:26:09.451Z,12.23
2022-09-25T04:28:36.787Z,12.16
2022-09-25T04:31:04.558Z,12.16
2022-09-25T04:33:47.835Z,12.22
2022-09-25T04:36:18.995Z,12.17
2022-09-25T04:38:46.201Z,12.24
2022-09-25T04:41:12.672Z,12.27
2022-09-25T04:43:41.269Z,12.20
2022-09-25T04:46:14.223Z,12.20
2022-09-25T04:48:46.603Z,12.13
2022-09-25T04:51:13.122Z,12.14
2022-09-25T04:53:41.497Z,12.13
2022-09-25T04:56:14.644Z,12.14
2022-09-25T04:58:47.585Z,12.17
2022-09-25T05:01:15.570Z,12.26
2022-09-25T05:03:42.841Z,12.30
2022-09-25T05:06:09.450Z,12.24
2022-09-25T05:08:35.893Z,12.31
2022-09-25T05:11:04.255Z,12.36
2022-09-25T05:13:30.763Z,12.35
2022-09-25T05:15:57.957Z,12.43
2022-09-25T05:18:25.259Z,12.43
2022-09-25T05:20:54.117Z,12.39
2022-09-25T05:23:21.619Z,12.33
2022-09-25T05:25:53.819Z,12.18
2022-09-25T05:28:23.002Z,12.16
2022-09-25T05:30:49.443Z,12.25
2022-09-25T05:33:15.906Z,12.32
2022-09-25T05:35:42.384Z,12.28
2022-09-25T05:38:08.928Z,12.30
2022-09-25T05:40:35.424Z,12.35
2022-09-25T05:43:03.095Z,12.39
2022-09-25T05:45:29.531Z,12.41
2022-09-25T05:48:06.400Z,12.42
2022-09-25T05:50:34.004Z,12.46
2022-09-25T05:53:04.017Z,12.53
2022-09-25T05:55:31.713Z,12.59
2022-09-25T05:58:04.698Z,12.53
2022-09-25T06:00:33.351Z,12.63
2022-09-25T06:03:01.662Z,12.67
2022-09-25T06:05:28.446Z,12.55
2022-09-25T06:07:55.666Z,12.58
2022-09-25T06:10:22.670Z,12.51
2022-09-25T06:12:49.380Z,12.53
2022-09-25T06:15:16.055Z,12.49
2022-09-25T06:17:42.698Z,12.43
2022-09-25T06:20:15.878Z,12.47
2022-09-25T06:22:44.310Z,12.46
2022-09-25T06:25:10.855Z,12.39
2022-09-25T06:27:37.466Z,12.33
2022-09-25T06:30:04.967Z,12.36
2022-09-25T06:32:31.403Z,12.33
2022-09-25T06:34:57.839Z,12.38
2022-09-25T06:37:24.370Z,12.39
2022-09-25T06:39:50.870Z,12.43
2022-09-25T06:42:17.342Z,12.50
2022-09-25T06:44:44.192Z,12.56
2022-09-25T06:47:16.228Z,12.59
2022-09-25T06:49:46.115Z,12.55
2022-09-25T06:52:12.847Z,12.54
2022-09-25T06:54:43.830Z,12.64
2022-09-25T06:57:12.077Z,12.67
2022-09-25T06:59:39.312Z,12.73
2022-09-25T07:02:24.805Z,12.69
2022-09-25T07:04:51.887Z,12.68
2022-09-25T07:07:22.036Z,12.70
2022-09-25T07:09:48.474Z,12.74
2022-09-25T07:12:17.553Z,12.75
2022-09-25T07:14:48.015Z,12.72
2022-09-25T07:17:14.714Z,12.71
2022-09-25T07:19:41.152Z,12.79
2022-09-25T07:22:07.610Z,12.91
2022-09-25T07:24:34.052Z,12.88
2022-09-25T07:27:00.514Z,12.91
2022-09-25T07:29:26.990Z,12.98
2022-09-25T07:31:53.419Z,13.05
2022-09-25T07:34:19.946Z,13.02
2022-09-25T07:36:47.408Z,12.98
2022-09-25T07:39:18.389Z,13.02
2022-09-25T07:41:45.788Z,13.06
2022-09-25T07:44:27.789Z,13.08
2022-09-25T07:46:55.267Z,12.93
2022-09-25T07:49:21.694Z,12.78
2022-09-25T07:51:48.200Z,12.85
2022-09-25T07:54:14.733Z,12.86
2022-09-25T07:56:43.906Z,12.93
2022-09-25T07:59:10.370Z,12.85
2022-09-25T08:01:41.159Z,12.81
2022-09-25T08:04:10.597Z,12.74
2022-09-25T08:06:38.257Z,12.77
2022-09-25T08:09:10.114Z,12.75
2022-09-25T08:11:38.123Z,12.80
2022-09-25T08:14:04.696Z,12.68
2022-09-25T08:16:31.296Z,12.66
2022-09-25T08:18:58.803Z,12.62
2022-09-25T08:21:25.525Z,12.63
2022-09-25T08:23:54.510Z,12.62
2022-09-25T08:26:22.947Z,12.62
2022-09-25T08:28:50.765Z,12.71
2022-09-25T08:31:18.180Z,12.77
2022-09-25T08:33:50.249Z,12.92
2022-09-25T08:36:18.059Z,13.02
2022-09-25T08:38:45.472Z,13.04
2022-09-25T08:41:33.120Z,13.07
2022-09-25T08:44:16.899Z,13.20
2022-09-25T08:47:19.664Z,13.24
2022-09-25T08:50:11.256Z,13.31
2022-09-25T08:52:44.143Z,13.33
2022-09-25T08:55:50.840Z,13.39
2022-09-25T08:58:29.596Z,13.46
2022-09-25T09:01:06.027Z,13.42
2022-09-25T09:03:48.657Z,13.40
2022-09-25T09:06:17.941Z,13.54
2022-09-25T09:08:55.793Z,13.62
2022-09-25T09:11:41.132Z,13.47
2022-09-25T09:14:16.620Z,13.45
2022-09-25T09:17:07.897Z,13.36
2022-09-25T09:19:34.528Z,13.37
2022-09-25T09:22:09.096Z,13.37
2022-09-25T09:24:57.163Z,13.29
2022-09-25T09:28:24.762Z,13.25
2022-09-25T09:31:13.097Z,13.22
2022-09-25T09:34:17.956Z,13.16
2022-09-25T09:37:15.776Z,13.15
2022-09-25T09:40:19.507Z,12.95
2022-09-25T09:43:04.142Z,12.99
2022-09-25T09:46:00.706Z,13.02
2022-09-25T09:49:05.273Z,12.80
2022-09-25T09:52:10.367Z,12.71
2022-09-25T09:55:01.732Z,12.62
2022-09-25T09:57:37.508Z,12.73
2022-09-25T10:00:14.778Z,12.66
2022-09-25T10:02:50.801Z,12.61
2022-09-25T10:05:33.929Z,12.87
2022-09-25T10:08:01.166Z,13.16
2022-09-25T10:10:53.827Z,13.17
2022-09-25T10:13:33.135Z,13.20
2022-09-25T10:16:16.815Z,13.13
2022-09-25T10:18:49.388Z,13.41
2022-09-25T10:21:24.758Z,13.22
2022-09-25T10:24:03.242Z,13.26
2022-09-25T10:26:39.339Z,13.41
2022-09-25T10:29:27.678Z,13.51
2022-09-25T10:32:03.854Z,13.82
2022-09-25T10:34:31.801Z,13.88
2022-09-25T10:36:58.254Z,14.05
2022-09-25T10:39:45.132Z,14.01
2022-09-25T10:42:41.135Z,13.82
2022-09-25T10:45:22.795Z,13.93
2022-09-25T10:48:09.800Z,13.94
2022-09-25T10:50:39.274Z,13.58
2022-09-25T10:53:07.409Z,13.98
2022-09-25T10:55:43.822Z,14.17
2022-09-25T10:58:24.055Z,14.11
2022-09-25T11:00:50.984Z,14.00
2022-09-25T11:03:28.050Z,14.08
2022-09-25T11:05:59.566Z,14.17
2022-09-25T11:08:32.215Z,14.22
2022-09-25T11:11:02.307Z,14.34
2022-09-25T11:13:45.840Z,14.40
2022-09-25T11:16:13.368Z,14.43
2022-09-25T11:18:49.729Z,14.68
2022-09-25T11:21:36.213Z,14.58
2022-09-25T11:24:40.473Z,14.57
2022-09-25T11:27:06.828Z,14.64
2022-09-25T11:30:16.992Z,14.68
2022-09-25T11:33:30.313Z,14.43
2022-09-25T11:36:00.113Z,14.37
2022-09-25T11:39:13.982Z,14.36
2022-09-25T11:42:05.091Z,14.62
2022-09-25T11:44:54.110Z,14.78
2022-09-25T11:47:43.194Z,14.63
2022-09-25T11:50:16.945Z,14.65
2022-09-25T11:53:22.685Z,14.75
2022-09-25T11:56:43.059Z,14.82
2022-09-25T11:59:26.039Z,14.86
2022-09-25T12:02:20.869Z,14.81
2022-09-25T12:05:17.581Z,14.79
2022-09-25T12:08:09.192Z,14.78
2022-09-25T12:11:04.663Z,14.74
2022-09-25T12:13:59.570Z,14.63
2022-09-25T12:16:44.951Z,14.74
2022-09-25T12:19:58.767Z,14.65
2022-09-25T12:22:54.845Z,14.59
2022-09-25T12:25:24.399Z,14.56
2022-09-25T12:28:11.577Z,14.69
2022-09-25T12:31:08.989Z,14.84
2022-09-25T12:34:21.713Z,14.77
2022-09-25T12:37:02.652Z,14.93
2022-09-25T12:39:47.507Z,15.02
2022-09-25T12:42:27.955Z,14.96
2022-09-25T12:45:05.488Z,14.94
2022-09-25T12:47:42.971Z,15.01
2022-09-25T12:50:17.005Z,15.20
2022-09-25T12:52:59.805Z,15.12
2022-09-25T12:55:43.854Z,15.28
2022-09-25T12:58:29.152Z,15.35
2022-09-25T13:01:09.947Z,15.21
2022-09-25T13:03:47.490Z,15.16
2022-09-25T13:06:31.365Z,15.10
2022-09-25T13:09:45.080Z,14.98
2022-09-25T13:12:37.092Z,15.03
2022-09-25T13:15:28.800Z,15.08
2022-09-25T13:17:57.740Z,15.33
2022-09-25T13:20:33.733Z,15.29
2022-09-25T13:23:17.475Z,15.18
2022-09-25T13:25:59.515Z,15.39
2022-09-25T13:28:38.212Z,15.38
2022-09-25T13:31:34.337Z,15.19
2022-09-25T13:34:00.815Z,15.43
2022-09-25T13:36:46.317Z,15.40
2022-09-25T13:39:50.743Z,15.31
2022-09-25T13:42:37.748Z,15.20
2022-09-25T13:45:16.115Z,14.82
2022-09-25T13:48:31.645Z,14.97
2022-09-25T13:51:17.878Z,15.07
2022-09-25T13:54:03.506Z,15.11
2022-09-25T13:56:41.858Z,15.21
2022-09-25T13:59:15.035Z,15.20
2022-09-25T14:01:58.913Z,15.15
2022-09-25T14:04:39.112Z,15.19
2022-09-25T14:07:17.487Z,14.96
2022-09-25T14:09:49.750Z,14.93
2022-09-25T14:12:42.559Z,14.96
2022-09-25T14:15:20.743Z,14.96
2022-09-25T14:17:50.763Z,15.00
2022-09-25T14:20:43.784Z,14.96
2022-09-25T14:23:16.329Z,14.97
2022-09-25T14:25:46.632Z,14.91
2022-09-25T14:28:24.009Z,14.82
2022-09-25T14:31:03.211Z,14.77
2022-09-25T14:34:07.532Z,14.82
2022-09-25T14:37:31.575Z,15.01
2022-09-25T14:40:23.929Z,15.13
2022-09-25T14:43:14.265Z,15.16
2022-09-25T14:46:10.374Z,14.93
2022-09-25T14:49:03.006Z,14.91
2022-09-25T14:51:41.671Z,14.82
2022-09-25T14:54:17.441Z,14.76
2022-09-25T14:56:50.094Z,14.62
2022-09-25T14:59:28.367Z,14.60
2022-09-25T15:01:55.111Z,14.79
2022-09-25T15:04:29.637Z,14.90
2022-09-25T15:07:14.119Z,14.97
2022-09-25T15:09:48.196Z,15.05
2022-09-25T15:12:35.714Z,14.89
2022-09-25T15:15:07.942Z,14.80
2022-09-25T15:17:47.674Z,14.76
2022-09-25T15:20:19.456Z,14.74
2022-09-25T15:22:59.159Z,14.54
2022-09-25T15:25:47.257Z,14.49
2022-09-25T15:28:19.235Z,14.34
2022-09-25T15:30:55.540Z,14.33
2022-09-25T15:33:26.422Z,14.34
2022-09-25T15:35:59.550Z,14.30
2022-09-25T15:38:35.868Z,14.23
2022-09-25T15:41:06.044Z,14.22
2022-09-25T15:43:32.801Z,14.12
2022-09-25T15:46:08.185Z,13.83
2022-09-25T15:48:41.022Z,13.73
2022-09-25T15:51:30.318Z,13.61
2022-09-25T15:54:04.823Z,13.57
2022-09-25T15:56:55.147Z,13.32
2022-09-25T16:00:04.329Z,13.12
2022-09-25T16:02:54.514Z,13.18
2022-09-25T16:05:35.177Z,13.25
2022-09-25T16:08:29.312Z,13.26
2022-09-25T16:11:16.585Z,13.29
2022-09-25T16:13:48.676Z,13.31
2022-09-25T16:16:31.286Z,13.31
2022-09-25T16:19:21.449Z,13.37
2022-09-25T16:21:48.865Z,13.30
2022-09-25T16:24:39.608Z,13.25
2022-09-25T16:27:06.227Z,13.21
2022-09-25T16:29:39.346Z,13.08
2022-09-25T16:32:15.126Z,13.03
2022-09-25T16:34:54.343Z,12.90
2022-09-25T16:37:26.839Z,12.70
2022-09-25T16:40:18.621Z,12.54
2022-09-25T16:42:47.356Z,12.55
2022-09-25T16:45:27.806Z,12.50
2022-09-25T16:47:58.321Z,12.40
2022-09-25T16:50:32.113Z,12.40
2022-09-25T16:53:00.463Z,12.39
2022-09-25T16:55:29.188Z,12.18
2022-09-25T16:57:58.398Z,12.05
2022-09-25T17:00:29.826Z,11.78
2022-09-25T17:02:56.799Z,11.73
2022-09-25T17:05:27.737Z,11.68
2022-09-25T17:08:00.543Z,11.64
2022-09-25T17:10:32.024Z,11.47
2022-09-25T17:13:02.326Z,11.38
2022-09-25T17:15:34.392Z,11.18
2022-09-25T17:18:02.386Z,11.01
2022-09-25T17:20:31.123Z,10.81
2022-09-25T17:22:57.737Z,10.73
2022-09-25T17:26:08.938Z,10.48
2022-09-25T17:28:35.451Z,10.33
2022-09-25T17:31:02.643Z,10.24
2022-09-25T17:33:30.233Z,10.16
2022-09-25T17:36:05.756Z,10.16
2022-09-25T17:38:33.871Z,10.14
2022-09-25T17:41:05.561Z,9.98
2022-09-25T17:43:32.947Z,9.93
2022-09-25T17:46:00.994Z,10.01
2022-09-25T17:48:31.361Z,9.95
2022-09-25T17:51:01.888Z,9.91
2022-09-25T17:53:33.768Z,9.72
2022-09-25T17:56:01.803Z,9.66
2022-09-25T17:58:31.098Z,9.54
2022-09-25T18:01:00.771Z,9.64
2022-09-25T18:03:30.191Z,9.63
2022-09-25T18:05:57.354Z,9.42
2022-09-25T18:08:24.280Z,9.33
2022-09-25T18:10:58.520Z,9.22
2022-09-25T18:13:25.315Z,9.19
2022-09-25T18:15:58.908Z,9.20
2022-09-25T18:18:25.856Z,9.33
2022-09-25T18:21:10.794Z,9.30
2022-09-25T18:23:38.479Z,9.11
2022-09-25T18:26:08.926Z,9.13
2022-09-25T18:28:35.522Z,9.14
2022-09-25T18:31:02.097Z,9.00
2022-09-25T18:33:28.674Z,8.93
2022-09-25T18:35:55.158Z,8.97
2022-09-25T18:38:21.731Z,9.02
2022-09-25T18:40:48.252Z,8.94
2022-09-25T18:43:14.812Z,8.84
2022-09-25T18:45:50.898Z,8.67
2022-09-25T18:48:17.349Z,8.60
2022-09-25T18:50:49.134Z,8.71
2022-09-25T18:53:16.868Z,8.94
2022-09-25T18:55:43.960Z,8.89
2022-09-25T18:58:11.508Z,8.60
2022-09-25T19:00:38.781Z,8.45
2022-09-25T19:03:06.453Z,8.35
2022-09-25T19:05:33.699Z,8.36
2022-09-25T19:08:01.105Z,8.35
2022-09-25T19:10:28.528Z,8.38
2022-09-25T19:12:54.981Z,8.24
2022-09-25T19:15:21.459Z,8.22
2022-09-25T19:17:48.283Z,8.35
2022-09-25T19:20:15.136Z,8.26
2022-09-25T19:22:41.616Z,8.11
2022-09-25T19:25:08.161Z,8.06
2022-09-25T19:27:34.620Z,7.92
2022-09-25T19:30:01.046Z,7.83
2022-09-25T19:32:28.060Z,7.91
2022-09-25T19:34:54.530Z,8.06
2022-09-25T19:37:23.983Z,8.12
2022-09-25T19:40:09.017Z,7.74
2022-09-25T19:42:37.259Z,7.60
2022-09-25T19:45:04.110Z,7.63
2022-09-25T19:47:31.683Z,7.77
2022-09-25T19:49:58.183Z,7.85
2022-09-25T19:52:24.767Z,7.77
2022-09-25T19:54:51.250Z,7.62
2022-09-25T19:57:18.046Z,7.48
2022-09-25T19:59:44.500Z,7.48
2022-09-25T20:02:11.113Z,7.59
2022-09-25T20:04:37.776Z,7.59
2022-09-25T20:07:04.293Z,7.58
2022-09-25T20:09:32.106Z,7.67
2022-09-25T20:12:00.254Z,7.76
2022-09-25T20:14:27.095Z,7.78
2022-09-25T20:16:54.921Z,7.60
2022-09-25T20:19:22.572Z,7.48
2022-09-25T20:21:49.851Z,7.35
2022-09-25T20:24:17.975Z,7.24
2022-09-25T20:26:44.456Z,7.32
2022-09-25T20:29:16.732Z,7.48
2022-09-25T20:31:45.378Z,7.57
2022-09-25T20:34:15.446Z,7.34
2022-09-25T20:36:42.892Z,7.10
2022-09-25T20:39:09.728Z,6.95
2022-09-25T20:41:36.718Z,6.94
2022-09-25T20:44:06.197Z,7.10
2022-09-25T20:46:33.771Z,7.25
2022-09-25T20:49:01.850Z,7.36
2022-09-25T20:51:32.701Z,7.27
2022-09-25T20:54:10.279Z,7.29
2022-09-25T20:56:43.468Z,7.35
2022-09-25T20:59:11.084Z,7.38
2022-09-25T21:01:40.767Z,7.20
2022-09-25T21:04:08.706Z,7.03
2022-09-25T21:06:39.403Z,6.67
2022-09-25T21:09:19.946Z,6.42
2022-09-25T21:11:46.967Z,6.27
2022-09-25T21:14:22.239Z,6.40
2022-09-25T21:16:51.268Z,6.55
2022-09-25T21:19:20.807Z,6.40
2022-09-25T21:21:48.482Z,6.40
2022-09-25T21:24:18.847Z,6.36
2022-09-25T21:26:46.840Z,6.31
2022-09-25T21:29:18.307Z,6.36
2022-09-25T21:31:49.675Z,6.33
2022-09-25T21:34:18.171Z,6.32
2022-09-25T21:36:45.922Z,6.31
2022-09-25T21:39:13.302Z,6.35
2022-09-25T21:41:40.309Z,6.48
2022-09-25T21:44:13.001Z,6.54
2022-09-25T21:46:40.295Z,6.39
2022-09-25T21:49:08.580Z,6.29
2022-09-25T21:51:43.232Z,6.33
2022-09-25T21:54:11.812Z,6.43
2022-09-25T21:56:38.531Z,6.38
2022-09-25T21:59:08.609Z,6.19
2022-09-25T22:01:40.492Z,6.11
2022-09-25T22:04:12.026Z,6.12
2022-09-25T22:06:42.645Z,6.18
2022-09-25T22:09:27.896Z,6.19
2022-09-25T22:11:54.344Z,6.03
2022-09-25T22:14:22.091Z,5.95
2022-09-25T22:16:51.959Z,6.00
2022-09-25T22:19:22.116Z,6.05
2022-09-25T22:21:51.234Z,6.09
2022-09-25T22:24:18.278Z,6.21
2022-09-25T22:26:47.937Z,6.30
2022-09-25T22:29:16.546Z,6.39
2022-09-25T22:31:47.071Z,6.28
2022-09-25T22:34:20.146Z,6.04
2022-09-25T22:36:48.248Z,5.94
2022-09-25T22:39:17.397Z,6.03
2022-09-25T22:41:44.874Z,6.20
2022-09-25T22:44:11.473Z,6.20
2022-09-25T22:46:37.947Z,5.99
2022-09-25T22:49:04.458Z,5.80
2022-09-25T22:51:33.863Z,5.87
2022-09-25T22:54:00.387Z,6.07
2022-09-25T22:56:30.523Z,6.21
2022-09-25T22:59:07.556Z,6.19
2022-09-25T23:01:54.755Z,5.94
2022-09-25T23:04:24.763Z,5.86
2022-09-25T23:06:52.011Z,5.84
2022-09-25T23:09:27.258Z,5.88
2022-09-25T23:11:56.624Z,6.03
2022-09-25T23:14:31.245Z,6.00
2022-09-25T23:16:58.806Z,5.98
2022-09-25T23:19:25.644Z,5.82
2022-09-25T23:21:54.041Z,5.89
2022-09-25T23:24:24.741Z,5.91
2022-09-25T23:26:52.426Z,5.87
2022-09-25T23:29:21.363Z,5.89
2022-09-25T23:31:49.197Z,5.85
2022-09-25T23:34:16.065Z,5.91
2022-09-25T23:36:42.875Z,5.96
2022-09-25T23:39:15.715Z,5.93
2022-09-25T23:41:42.351Z,5.72
2022-09-25T23:44:10.579Z,5.62
2022-09-25T23:46:42.643Z,5.53
2022-09-25T23:49:10.411Z,5.55
2022-09-25T23:51:37.875Z,5.60
2022-09-25T23:54:05.226Z,5.56
2022-09-25T23:56:34.204Z,5.64
2022-09-25T23:59:02.133Z,5.73
